Flight Track Log - Related Links

Times and Time Zones

All times are in EDT time to prevent confusion due to time zone crossing. See the KAP46 flight status page for this flight to view local times or setup timezone preferences in your user account.

Time Position Orientation Groundspeed Altitude Reporting Facility
EDT Latitude Longitude Course Direction KTS MPH feet Rate Location/Type
Sat 02:40:00 PM 42.8952 -73.8692 341° North  Level Estimated
Sat 02:41:00 PM 42.9196 -73.8804 341° North  Level Estimated
Sat 02:42:00 PM 42.9439 -73.8917 341° North  Level Estimated
Sat 02:42:25 PM 43.0369 -73.7439 341° North 140 161 6,200  Level Boston Center
Sat 02:43:00 PM 42.9683 -73.9029 341° North  Level Estimated
Sat 02:43:25 PM 43.0700 -73.7589 342° North 140 161 6,700  Level Boston Center
Sat 02:44:00 PM 42.9926 -73.9142 341° North  Level Estimated
Sat 02:44:25 PM 43.1117 -73.7656 353° North 158 182 7,000  Level Boston Center
Sat 02:45:00 PM 43.0170 -73.9255 341° North  Level Estimated
Sat 02:45:25 PM 43.1511 -73.7806 344° North 167 192 7,100  Level Boston Center
Sat 02:46:00 PM 43.0413 -73.9367 341° North  Level Estimated
Sat 02:46:25 PM 43.1989 -73.8014 342° North 164 189 7,000  Level Boston Center
Sat 02:47:00 PM 43.0657 -73.9480 341° North  Level Estimated
Sat 02:47:25 PM 43.2403 -73.8253 337° Northwest 170 196 7,000  Level Boston Center
Sat 02:48:25 PM 43.2753 -73.8461 337° Northwest 165 190 6,900  Descending Boston Center
Sat 02:49:25 PM 43.3189 -73.8728 336° Northwest 159 183 7,000 50 Climbing Boston Center
Sat 02:50:25 PM 43.3603 -73.8936 340° North 151 174 7,000 -50 Level Boston Center
Sat 02:51:25 PM 43.3953 -73.9172 334° Northwest 157 181 6,900 -50 Descending Boston Center
Sat 02:52:25 PM 43.4328 -73.9325 344° North 157 181 6,900  Level Boston Center
Sat 02:53:25 PM 43.4719 -73.9592 334° Northwest 157 181 6,900  Level Boston Center
Sat 02:54:25 PM 43.5133 -73.9831 337° Northwest 157 181 6,900  Level Boston Center
Sat 02:55:25 PM 43.5525 -74.0072 336° Northwest 157 181 6,900 50 Level Boston Center
Sat 02:56:25 PM 43.5939 -74.0311 337° Northwest 157 181 7,000  Climbing Boston Center
Sat 02:57:25 PM 43.6331 -74.0550 336° Northwest 157 181 6,900  Descending Boston Center
Sat 02:58:37 PM 43.6806 -74.0850 335° Northwest 157 181 7,000 45 Climbing Boston Center
Sat 02:59:37 PM 43.7283 -74.1122 338° Northwest 157 181 7,000 -50 Level Boston Center
Sat 03:00:37 PM 43.7675 -74.1364 336° Northwest 157 181 6,900 -50 Descending Boston Center
Sat 03:01:37 PM 43.8089 -74.1606 337° Northwest 157 181 6,900  Level Boston Center
Sat 03:02:37 PM 43.8500 -74.1847 337° Northwest 157 181 6,900  Level Boston Center
Sat 03:03:37 PM 43.8831 -74.2058 335° Northwest 157 181 6,900  Level Boston Center
Sat 03:04:37 PM 43.9328 -74.2333 338° Northwest 157 181 6,900  Level Boston Center
Sat 03:05:37 PM 43.9761 -74.2606 336° Northwest 157 181 6,900  Level Boston Center
Sat 03:06:37 PM 44.0172 -74.2819 339° North 157 181 6,900 50 Level Boston Center
Sat 03:07:37 PM 44.0586 -74.3092 335° Northwest 157 181 7,000 50 Climbing Boston Center
Sat 03:08:37 PM 44.0978 -74.3336 336° Northwest 157 181 7,000  Level Boston Center
Sat 03:09:37 PM 44.1392 -74.3581 337° Northwest 157 181 7,000  Level Boston Center
Sat 03:10:37 PM 44.1825 -74.3797 340° North 157 181 7,000  Level Boston Center
Sat 03:11:37 PM 44.2278 -74.4072 336° Northwest 163 188 7,000  Level Boston Center
Sat 03:12:37 PM 44.2711 -74.4347 336° Northwest 163 188 7,000  Level Boston Center
Sat 03:14:00 PM 44.3093 -74.4894 314° West  Level FlightAware Approximate
Sat 03:14:37 PM 44.3514 -74.4928 314° West 163 188 7,000  Level Boston Center
Sat 03:15:37 PM 44.3947 -74.5144 340° North 163 188 6,900 -200 Descending Boston Center
Sat 03:16:37 PM 44.4403 -74.5336 343° North 163 188 6,600 -350 Descending Boston Center
Sat 03:17:37 PM 44.4856 -74.5642 334° Northwest 171 197 6,200 -450 Descending Boston Center
Sat 03:18:37 PM 44.5350 -74.5953 336° Northwest 171 197 5,700 -500 Descending Boston Center
Sat 03:19:37 PM 44.5822 -74.6231 337° Northwest 176 203 5,200 -400 Descending Boston Center
Sat 03:20:37 PM 44.6297 -74.6542 335° Northwest 176 203 4,900 -150 Descending Boston Center
Sat 03:21:37 PM 44.6708 -74.6819 334° Northwest 171 197 4,900  Level Boston Center

Login

Don't have an account? Register now (free) for customized features, flight alerts, and more!